Time;durP1;ratioP1;P1;durP2;ratioP2;P2;SDS_P1;SDS_P2;PMS_P1;PMS_P2;Temp;Humidity;BMP_temperature;BMP_pressure;BME280_temperature;BME280_humidity;BME280_pressure;Samples;Min_cycle;Max_cycle;Signal;HPM_P1;HPM_P2
2022/04/17 00:01:46;;;;;;;3.17;1.67;;;;;;;1.75;54.70;99804.22;5014120;28;20040;-70
2022/04/17 00:04:14;;;;;;;2.65;1.75;;;;;;;1.71;54.44;99803.47;5014989;28;20084;-72
2022/04/17 00:06:38;;;;;;;3.17;1.90;;;;;;;1.71;54.57;99808.72;5014891;28;20059;-71
2022/04/17 00:09:03;;;;;;;2.97;2.08;;;;;;;1.68;54.33;99814.09;5014877;28;20044;-72
2022/04/17 00:11:28;;;;;;;2.97;1.88;;;;;;;1.68;54.62;99826.38;5015232;28;20051;-71
2022/04/17 00:13:54;;;;;;;2.78;1.90;;;;;;;1.68;54.29;99829.00;5014044;28;20040;-70
2022/04/17 00:16:19;;;;;;;2.30;1.50;;;;;;;1.65;54.06;99824.69;5014558;28;20075;-68
2022/04/17 00:18:44;;;;;;;1.55;1.45;;;;;;;1.67;54.04;99830.78;5014812;28;20068;-68
2022/04/17 00:21:09;;;;;;;1.92;1.10;;;;;;;1.64;54.42;99833.50;5006792;28;20033;-69
2022/04/17 00:23:34;;;;;;;2.95;2.08;;;;;;;1.61;54.26;99828.31;5014615;28;20049;-69
2022/04/17 00:25:59;;;;;;;1.80;1.70;;;;;;;1.63;54.16;99833.53;4997162;28;20353;-69
2022/04/17 00:28:24;;;;;;;1.73;1.02;;;;;;;1.65;54.59;99829.94;5013809;28;20415;-69
2022/04/17 00:30:48;;;;;;;4.60;1.75;;;;;;;1.75;53.68;99831.38;5013150;28;20041;-69
2022/04/17 00:33:13;;;;;;;2.17;1.42;;;;;;;1.69;53.73;99841.25;5014433;28;20499;-69
2022/04/17 00:35:38;;;;;;;4.43;1.58;;;;;;;1.63;53.78;99841.41;4996460;28;20076;-70
2022/04/17 00:38:04;;;;;;;1.88;1.17;;;;;;;1.65;53.87;99834.34;5015752;28;20049;-69
2022/04/17 00:40:29;;;;;;;2.22;1.40;;;;;;;1.60;54.17;99837.09;5015508;28;20056;-65
2022/04/17 00:42:55;;;;;;;2.42;1.50;;;;;;;1.61;54.02;99838.81;4997962;28;20094;-71
2022/04/17 00:45:20;;;;;;;3.03;1.33;;;;;;;1.65;54.32;99836.97;5014564;28;20563;-70
2022/04/17 00:47:45;;;;;;;2.58;1.38;;;;;;;1.66;53.75;99842.19;4994288;28;20895;-71
2022/04/17 00:50:10;;;;;;;1.25;1.00;;;;;;;1.61;53.63;99843.22;5015415;28;20044;-70
2022/04/17 00:52:36;;;;;;;5.25;2.40;;;;;;;1.59;53.58;99839.78;5014532;28;20467;-69
2022/04/17 00:55:04;;;;;;;1.65;1.55;;;;;;;1.60;53.81;99842.38;5013779;28;20049;-69
2022/04/17 00:57:30;;;;;;;4.32;1.33;;;;;;;1.62;53.61;99837.06;4994101;28;20467;-69
2022/04/17 00:59:56;;;;;;;2.45;2.25;;;;;;;1.58;53.46;99833.66;5013755;28;20039;-72
2022/04/17 01:02:21;;;;;;;1.55;1.40;;;;;;;1.54;53.79;99829.44;5014157;28;20108;-71
2022/04/17 01:04:46;;;;;;;2.40;1.80;;;;;;;1.52;54.00;99833.00;4987649;28;20124;-67
2022/04/17 01:07:11;;;;;;;2.35;1.75;;;;;;;1.58;53.27;99838.09;5014136;28;20047;-73
2022/04/17 01:09:36;;;;;;;2.20;1.23;;;;;;;1.54;53.86;99832.06;5016317;28;20047;-68
2022/04/17 01:12:01;;;;;;;2.03;1.23;;;;;;;1.54;53.73;99825.94;5014533;28;20838;-71
2022/04/17 01:14:30;;;;;;;2.90;1.02;;;;;;;1.56;53.65;99840.75;5015866;28;20143;-71
2022/04/17 01:16:55;;;;;;;3.60;1.58;;;;;;;1.58;53.39;99828.41;5016123;28;20083;-69
2022/04/17 01:19:20;;;;;;;2.28;1.50;;;;;;;1.56;53.67;99843.38;5018047;28;20060;-69
2022/04/17 01:21:46;;;;;;;1.73;1.63;;;;;;;1.56;53.54;99829.38;4999276;28;20075;-68
2022/04/17 01:26:56;;;;;;;1.27;1.15;;;;;;;1.52;53.82;99833.88;5011925;28;20131;-65
2022/04/17 01:29:21;;;;;;;2.60;1.02;;;;;;;1.52;53.43;99838.28;5016880;28;20039;-66
2022/04/17 01:31:48;;;;;;;0.90;0.80;;;;;;;1.51;53.55;99834.78;5013865;28;20037;-65
2022/04/17 01:34:17;;;;;;;1.58;0.93;;;;;;;1.56;53.20;99843.38;5013661;28;20051;-65
2022/04/17 01:36:46;;;;;;;1.45;1.27;;;;;;;1.51;53.38;99845.28;5011992;28;20045;-66
2022/04/17 01:39:12;;;;;;;2.60;1.60;;;;;;;1.47;53.48;99848.09;5011694;28;20119;-66
2022/04/17 01:41:37;;;;;;;3.17;1.48;;;;;;;1.46;53.39;99844.59;4998517;28;20043;-66
2022/04/17 01:44:03;;;;;;;2.20;1.20;;;;;;;1.45;53.91;99854.25;5018459;28;20049;-67
2022/04/17 01:46:28;;;;;;;2.05;1.20;;;;;;;1.44;53.41;99852.50;5020996;28;20041;-68
2022/04/17 01:48:54;;;;;;;1.75;1.27;;;;;;;1.43;53.76;99860.44;5019056;28;20091;-65
2022/04/17 01:51:19;;;;;;;5.07;1.80;;;;;;;1.45;53.58;99856.00;5019119;28;20048;-65
2022/04/17 01:53:43;;;;;;;2.97;1.25;;;;;;;1.46;53.67;99849.84;5007825;28;20035;-69
2022/04/17 01:56:08;;;;;;;1.65;1.55;;;;;;;1.48;53.91;99845.38;5002643;28;20499;-67
2022/04/17 01:58:33;;;;;;;1.75;1.25;;;;;;;1.47;53.74;99841.03;5017470;28;20037;-69
2022/04/17 02:00:57;;;;;;;3.03;1.65;;;;;;;1.47;53.57;99840.19;4991061;28;20056;-67
2022/04/17 02:03:22;;;;;;;5.28;1.77;;;;;;;1.43;53.81;99844.69;5016932;28;20160;-67
2022/04/17 02:05:47;;;;;;;2.63;1.60;;;;;;;1.41;53.72;99841.22;5016632;28;20045;-66
2022/04/17 02:08:13;;;;;;;3.95;2.30;;;;;;;1.41;53.36;99838.59;5017859;28;20136;-67
2022/04/17 02:10:38;;;;;;;3.40;1.73;;;;;;;1.36;53.47;99830.84;5017704;28;20091;-65
2022/04/17 02:13:02;;;;;;;3.35;1.45;;;;;;;1.36;53.33;99838.75;5008257;28;20072;-66
2022/04/17 02:15:27;;;;;;;2.85;1.48;;;;;;;1.37;53.14;99831.72;5017133;28;20517;-68
2022/04/17 02:17:52;;;;;;;4.05;1.83;;;;;;;1.32;53.54;99817.88;5012621;28;20065;-68
2022/04/17 02:20:17;;;;;;;1.73;1.27;;;;;;;1.28;53.68;99829.38;5016354;28;20045;-69
2022/04/17 02:22:42;;;;;;;1.50;1.15;;;;;;;1.26;53.81;99836.44;5004051;28;20095;-64
2022/04/17 02:25:07;;;;;;;0.95;0.95;;;;;;;1.23;53.68;99826.91;5019367;28;20075;-64
2022/04/17 02:27:32;;;;;;;1.63;1.23;;;;;;;1.19;53.68;99846.28;5017284;28;20045;-67
2022/04/17 02:29:57;;;;;;;6.68;2.08;;;;;;;1.16;54.11;99837.63;5012855;28;20055;-66
2022/04/17 02:32:21;;;;;;;1.85;1.45;;;;;;;1.15;53.68;99836.78;4983532;28;20044;-65
2022/04/17 02:34:46;;;;;;;4.07;1.85;;;;;;;1.12;53.92;99842.13;5006627;28;20131;-70
2022/04/17 02:37:11;;;;;;;1.50;1.33;;;;;;;1.12;54.02;99841.28;5018107;28;20052;-69
2022/04/17 02:39:37;;;;;;;1.85;1.23;;;;;;;1.09;53.92;99834.34;5017804;28;20056;-70
2022/04/17 02:42:02;;;;;;;3.20;1.58;;;;;;;1.08;54.10;99825.59;5017774;28;20131;-70
2022/04/17 02:44:27;;;;;;;6.20;1.67;;;;;;;1.08;54.19;99827.38;5017891;28;20155;-69
2022/04/17 02:49:35;;;;;;;1.30;1.20;;;;;;;1.06;53.89;99835.28;5018154;28;20041;-71
2022/04/17 02:52:00;;;;;;;4.30;1.40;;;;;;;1.06;53.75;99830.03;5017508;28;20056;-70
2022/04/17 02:54:25;;;;;;;2.42;1.67;;;;;;;1.11;54.02;99831.69;5017056;28;20041;-70
2022/04/17 02:56:50;;;;;;;3.25;1.60;;;;;;;1.15;53.50;99828.03;5017937;28;20041;-69
2022/04/17 02:59:15;;;;;;;4.95;1.42;;;;;;;1.11;53.50;99839.56;5017323;28;20052;-70
2022/04/17 03:07:06;;;;;;;4.38;1.27;;;;;;;1.13;54.16;99846.44;5017506;28;20052;-69
2022/04/17 03:09:31;;;;;;;1.63;1.13;;;;;;;1.12;54.09;99855.25;5017416;28;20103;-70
2022/04/17 03:11:56;;;;;;;2.30;1.70;;;;;;;1.12;53.84;99847.38;4999082;28;20122;-67
2022/04/17 03:14:21;;;;;;;3.88;2.00;;;;;;;1.08;53.84;99843.97;5016712;28;20091;-69
2022/04/17 03:16:45;;;;;;;3.70;2.20;;;;;;;1.10;53.90;99851.81;5016547;28;20528;-69
2022/04/17 03:19:10;;;;;;;2.60;1.58;;;;;;;1.07;53.69;99858.00;5017149;28;20051;-69
2022/04/17 03:21:35;;;;;;;6.03;1.80;;;;;;;1.08;53.94;99858.88;5016930;28;20045;-68
2022/04/17 03:24:00;;;;;;;3.80;2.00;;;;;;;1.11;53.91;99863.19;5017144;28;20090;-70
2022/04/17 03:26:25;;;;;;;5.07;1.65;;;;;;;1.16;53.78;99859.50;5017299;28;20049;-70
2022/04/17 03:28:54;;;;;;;1.65;1.23;;;;;;;1.20;53.65;99865.53;5016004;28;20522;-69
2022/04/17 03:31:18;;;;;;;2.10;1.70;;;;;;;1.26;53.43;99867.97;5003431;28;20048;-68
2022/04/17 03:33:43;;;;;;;4.05;1.73;;;;;;;1.27;53.43;99867.06;5016715;28;20037;-64
2022/04/17 03:36:08;;;;;;;2.10;1.15;;;;;;;1.32;53.36;99867.78;5015400;28;20048;-65
2022/04/17 03:38:32;;;;;;;5.38;1.90;;;;;;;1.35;53.20;99863.31;5016934;28;20032;-65
2022/04/17 03:40:59;;;;;;;2.60;1.60;;;;;;;1.37;53.44;99865.88;5015350;28;20054;-64
2022/04/17 03:43:24;;;;;;;1.45;1.17;;;;;;;1.41;53.38;99864.88;5016673;28;20043;-65
2022/04/17 03:45:49;;;;;;;2.40;1.65;;;;;;;1.45;53.61;99874.38;5016729;28;20049;-67
2022/04/17 03:48:17;;;;;;;2.28;1.45;;;;;;;1.45;53.08;99874.38;5016530;28;20048;-65
2022/04/17 03:50:41;;;;;;;4.60;1.45;;;;;;;1.46;52.94;99881.38;5016965;28;20060;-65
2022/04/17 03:53:06;;;;;;;12.38;1.83;;;;;;;1.45;53.14;99877.88;5006276;28;20056;-66
2022/04/17 03:55:32;;;;;;;4.18;1.30;;;;;;;1.51;53.02;99875.94;5002531;28;20166;-66
2022/04/17 03:57:56;;;;;;;3.00;1.45;;;;;;;1.48;52.76;99890.03;5015455;28;20043;-65
2022/04/17 04:00:21;;;;;;;1.88;1.27;;;;;;;1.48;52.25;99887.41;5017191;28;20048;-66
2022/04/17 04:02:49;;;;;;;1.67;1.45;;;;;;;1.49;52.86;99889.13;5016427;28;20135;-66
2022/04/17 04:05:13;;;;;;;2.80;1.50;;;;;;;1.49;52.45;99891.75;5014481;28;20048;-66
2022/04/17 04:07:39;;;;;;;2.30;1.23;;;;;;;1.45;52.75;99882.28;5016892;28;20037;-66
2022/04/17 04:10:05;;;;;;;1.58;1.30;;;;;;;1.50;52.42;99887.38;5015667;28;20124;-65
2022/04/17 04:12:31;;;;;;;3.25;1.70;;;;;;;1.52;52.81;99896.06;5016823;28;20037;-65
2022/04/17 04:14:55;;;;;;;4.38;1.90;;;;;;;1.58;52.69;99898.53;5015509;28;20476;-65
2022/04/17 04:17:20;;;;;;;2.03;1.35;;;;;;;1.57;52.46;99900.28;5016145;28;20479;-65
2022/04/17 04:19:45;;;;;;;2.80;1.88;;;;;;;1.54;51.94;99889.88;5016391;28;20148;-65
2022/04/17 04:22:10;;;;;;;2.22;1.33;;;;;;;1.52;52.34;99902.19;5015016;28;20102;-65
2022/04/17 04:24:34;;;;;;;4.60;2.00;;;;;;;1.57;52.37;99902.06;4981966;28;20045;-65
2022/04/17 04:29:42;;;;;;;2.03;1.08;;;;;;;1.54;51.88;99899.50;5015444;28;20132;-65
2022/04/17 04:32:08;;;;;;;5.85;1.90;;;;;;;1.61;52.06;99901.91;5017334;28;20136;-65
2022/04/17 04:34:32;;;;;;;1.67;1.23;;;;;;;1.72;51.96;99901.56;5017080;28;20048;-65
2022/04/17 04:36:57;;;;;;;4.57;1.42;;;;;;;1.84;52.08;99903.81;4998619;28;20056;-65
2022/04/17 04:39:22;;;;;;;6.32;2.05;;;;;;;1.93;51.34;99902.63;5014812;28;20406;-66
2022/04/17 04:41:47;;;;;;;3.65;1.65;;;;;;;2.00;51.44;99906.81;5016340;28;20384;-65
2022/04/17 04:44:12;;;;;;;2.53;1.30;;;;;;;2.11;51.62;99917.84;5015652;28;20105;-65
2022/04/17 04:46:38;;;;;;;2.70;1.30;;;;;;;2.19;50.90;99921.06;5016850;28;20041;-65
2022/04/17 04:51:46;;;;;;;2.58;1.38;;;;;;;2.16;50.54;99914.13;5016066;28;20052;-65
2022/04/17 04:54:11;;;;;;;1.58;1.45;;;;;;;2.17;50.78;99920.25;5015327;28;20051;-67
2022/04/17 04:56:36;;;;;;;4.70;2.03;;;;;;;2.23;50.55;99920.06;5017467;28;20446;-65
2022/04/17 04:59:01;;;;;;;3.65;1.75;;;;;;;2.32;50.93;99911.00;5017294;28;20041;-65
2022/04/17 05:01:25;;;;;;;2.58;1.30;;;;;;;2.48;50.77;99909.59;5015756;28;20033;-66
2022/04/17 05:03:50;;;;;;;2.38;1.40;;;;;;;2.62;49.61;99912.56;5015396;28;20064;-66
2022/04/17 05:06:15;;;;;;;3.03;1.75;;;;;;;2.68;49.78;99914.16;5014050;28;20040;-65
2022/04/17 05:08:39;;;;;;;1.95;1.23;;;;;;;2.79;49.92;99914.63;5014146;28;20045;-66
2022/04/17 05:11:04;;;;;;;1.95;1.52;;;;;;;2.93;49.19;99917.63;5015520;28;20044;-67
2022/04/17 05:13:29;;;;;;;14.98;2.53;;;;;;;3.06;48.98;99905.72;4997565;28;20451;-64
2022/04/17 05:15:53;;;;;;;2.83;1.88;;;;;;;3.23;48.69;99910.38;4997038;28;20499;-62
2022/04/17 05:18:18;;;;;;;2.17;1.42;;;;;;;3.43;48.49;99904.34;5015458;28;20468;-62
2022/04/17 05:20:43;;;;;;;3.17;1.83;;;;;;;3.46;47.98;99902.47;5015030;28;20048;-63
2022/04/17 05:23:21;;;;;;;1.52;1.30;;;;;;;3.42;47.41;99898.22;5015204;28;20049;-63
2022/04/17 05:25:48;;;;;;;2.80;1.50;;;;;;;3.38;47.81;99895.78;5015713;28;20048;-62
2022/04/17 05:28:14;;;;;;;3.60;1.35;;;;;;;3.59;48.01;99895.81;5013780;28;20057;-62
2022/04/17 05:30:39;;;;;;;2.50;0.95;;;;;;;3.91;47.70;99901.56;5014416;28;20426;-63
2022/04/17 05:33:04;;;;;;;3.15;1.65;;;;;;;4.38;46.99;99904.91;5015446;28;20570;-64
2022/04/17 05:35:29;;;;;;;2.75;1.77;;;;;;;4.78;45.31;99906.69;5013871;28;20113;-62
2022/04/17 05:37:54;;;;;;;2.53;1.95;;;;;;;4.79;44.41;99918.09;4996878;28;20128;-62
2022/04/17 05:40:19;;;;;;;6.00;1.58;;;;;;;4.78;45.01;99926.94;5013704;28;20045;-64
2022/04/17 05:42:44;;;;;;;3.70;1.63;;;;;;;4.85;45.09;99929.28;5013450;28;20508;-62
2022/04/17 05:45:09;;;;;;;4.85;1.85;;;;;;;4.79;44.67;99931.31;5014909;28;20033;-63
2022/04/17 05:47:34;;;;;;;6.28;2.20;;;;;;;4.55;44.99;99936.72;5014729;28;20047;-63
2022/04/17 05:50:00;;;;;;;2.67;2.00;;;;;;;4.20;45.36;99934.66;5013572;28;20510;-63
2022/04/17 05:52:25;;;;;;;2.15;1.70;;;;;;;3.97;46.65;99935.59;4997015;28;20049;-62
2022/04/17 05:54:50;;;;;;;2.72;1.90;;;;;;;3.88;46.51;99938.59;5013687;28;20045;-63
2022/04/17 05:57:15;;;;;;;4.05;2.13;;;;;;;3.86;46.87;99933.38;5013642;28;20104;-63
2022/04/17 05:59:40;;;;;;;2.85;1.42;;;;;;;3.87;46.78;99934.25;5013216;28;20060;-63
2022/04/17 06:02:05;;;;;;;2.40;1.38;;;;;;;3.90;46.95;99932.38;5013376;28;20627;-64
2022/04/17 06:04:30;;;;;;;4.30;2.30;;;;;;;4.10;46.94;99943.88;5013255;28;20566;-62
2022/04/17 06:06:55;;;;;;;3.90;1.90;;;;;;;4.30;46.06;99930.72;4996706;28;20551;-63
2022/04/17 06:09:19;;;;;;;3.60;1.73;;;;;;;4.47;46.04;99930.91;5014433;28;20106;-61
2022/04/17 06:11:44;;;;;;;7.65;2.38;;;;;;;4.66;45.83;99938.91;5013170;28;20044;-61
2022/04/17 06:14:09;;;;;;;5.10;2.25;;;;;;;5.08;45.35;99933.53;4996777;28;20049;-61
2022/04/17 06:16:33;;;;;;;3.78;2.20;;;;;;;5.52;44.24;99930.69;5014523;28;20144;-60
2022/04/17 06:18:58;;;;;;;4.13;1.60;;;;;;;5.89;43.43;99941.25;5014766;28;20087;-61
2022/04/17 06:21:23;;;;;;;2.35;1.67;;;;;;;6.30;42.63;99941.06;5014808;28;20167;-61
2022/04/17 06:23:48;;;;;;;5.32;2.25;;;;;;;6.58;42.15;99938.75;5014561;28;20123;-61
2022/04/17 06:26:12;;;;;;;2.90;2.00;;;;;;;6.75;41.46;99949.34;5014631;28;20125;-61
2022/04/17 06:28:37;;;;;;;5.15;2.35;;;;;;;7.27;41.43;99959.88;5017819;28;20072;-61
2022/04/17 06:31:03;;;;;;;3.50;2.10;;;;;;;7.70;40.36;99942.50;5018164;28;20045;-63
2022/04/17 06:33:28;;;;;;;3.25;2.05;;;;;;;7.83;39.88;99951.50;5018074;28;20068;-63
2022/04/17 06:35:52;;;;;;;2.28;1.58;;;;;;;7.75;39.03;99944.94;5017849;28;20068;-62
2022/04/17 06:38:17;;;;;;;5.40;1.98;;;;;;;7.53;39.46;99947.91;5018039;28;20102;-62
2022/04/17 06:40:43;;;;;;;2.35;1.77;;;;;;;7.38;39.79;99940.75;5017835;28;20438;-63
2022/04/17 06:43:08;;;;;;;5.50;2.42;;;;;;;7.22;39.49;99943.38;5017925;28;20072;-61
2022/04/17 06:45:40;;;;;;;2.38;1.80;;;;;;;7.29;40.26;99940.31;5016867;28;20063;-63
2022/04/17 06:48:15;;;;;;;6.93;2.53;;;;;;;7.99;39.83;99938.25;4999742;28;20506;-62
2022/04/17 06:50:41;;;;;;;4.88;2.30;;;;;;;9.23;37.90;99948.66;5018052;28;20068;-64
2022/04/17 06:53:05;;;;;;;3.75;1.90;;;;;;;9.99;36.32;99945.66;5016622;28;20049;-62
2022/04/17 06:55:30;;;;;;;3.28;2.05;;;;;;;10.32;35.86;99935.50;5017383;28;20047;-63
2022/04/17 06:57:55;;;;;;;2.97;1.67;;;;;;;10.19;34.88;99946.13;5016756;28;20052;-63
2022/04/17 07:00:22;;;;;;;5.22;2.03;;;;;;;9.81;35.43;99945.91;5017703;28;20037;-61
2022/04/17 07:02:47;;;;;;;9.52;3.75;;;;;;;9.24;35.32;99945.06;5016378;28;20076;-63
2022/04/17 07:05:13;;;;;;;8.25;2.47;;;;;;;8.58;36.62;99957.91;5017493;28;20499;-69
2022/04/17 07:07:38;;;;;;;2.20;1.65;;;;;;;7.93;37.83;99951.84;5016317;28;20127;-65
2022/04/17 07:10:03;;;;;;;3.17;2.25;;;;;;;7.43;37.98;99942.22;5018545;28;20128;-62
2022/04/17 07:12:31;;;;;;;8.20;2.22;;;;;;;7.20;38.75;99940.81;5016415;28;20033;-64
2022/04/17 07:15:00;;;;;;;3.58;2.10;;;;;;;6.98;39.00;99945.53;5017662;28;20089;-63
2022/04/17 07:17:35;;;;;;;3.92;2.38;;;;;;;6.81;39.62;99941.06;5018123;28;20032;-63
2022/04/17 07:20:00;;;;;;;2.72;1.50;;;;;;;6.51;39.69;99943.50;5019777;28;20088;-63
2022/04/17 07:22:25;;;;;;;5.38;2.13;;;;;;;6.24;40.22;99949.28;5018459;28;20047;-63
2022/04/17 07:24:53;;;;;;;6.50;2.22;;;;;;;6.13;40.58;99950.66;5019787;28;20053;-63
2022/04/17 07:27:20;;;;;;;2.40;1.95;;;;;;;6.25;41.06;99954.50;5018470;28;20041;-63
2022/04/17 07:29:45;;;;;;;4.47;1.50;;;;;;;6.39;40.44;99956.50;5017274;28;20044;-63
2022/04/17 07:32:10;;;;;;;2.08;1.38;;;;;;;6.51;39.48;99946.16;5017131;28;20043;-63
2022/04/17 07:34:34;;;;;;;4.55;1.48;;;;;;;6.54;39.72;99951.31;5018167;28;20198;-62
2022/04/17 07:36:59;;;;;;;3.00;1.85;;;;;;;6.48;39.60;99970.13;5015926;28;20500;-64
2022/04/17 07:39:24;;;;;;;3.97;2.08;;;;;;;6.37;39.81;99963.66;5015335;28;20060;-63
2022/04/17 07:41:49;;;;;;;3.88;1.80;;;;;;;6.29;40.50;99965.81;5017374;28;20045;-64
2022/04/17 07:44:14;;;;;;;1.98;1.52;;;;;;;6.28;39.65;99964.97;5017322;28;20045;-62
2022/04/17 07:46:40;;;;;;;4.90;1.95;;;;;;;6.21;40.12;99973.28;4999135;28;20052;-64
2022/04/17 07:49:05;;;;;;;2.75;2.20;;;;;;;6.16;40.11;99971.72;5015615;28;20041;-63
2022/04/17 07:51:30;;;;;;;5.97;3.00;;;;;;;6.20;40.45;99964.47;5016432;28;20044;-62
2022/04/17 07:53:55;;;;;;;7.00;1.92;;;;;;;6.24;39.72;99970.47;5016953;28;20045;-63
2022/04/17 07:56:20;;;;;;;2.38;1.80;;;;;;;6.24;39.70;99966.03;5017193;28;20061;-62
2022/04/17 07:58:44;;;;;;;3.53;1.52;;;;;;;6.23;40.17;99966.97;5015325;28;20043;-61
2022/04/17 08:01:14;;;;;;;1.77;1.67;;;;;;;6.21;39.36;99966.16;5033382;28;20780;-61
2022/04/17 08:06:06;;;;;;;3.42;1.83;;;;;;;6.22;39.42;99967.88;5017928;28;20123;-62
2022/04/17 08:08:35;;;;;;;2.08;1.27;;;;;;;6.16;39.56;99977.00;5016039;28;20132;-63
2022/04/17 08:11:00;;;;;;;3.78;1.40;;;;;;;6.07;39.70;99974.81;5014194;28;20415;-63
2022/04/17 08:13:25;;;;;;;2.88;1.73;;;;;;;5.93;39.82;99995.75;5016313;28;20479;-62
2022/04/17 08:15:52;;;;;;;4.95;1.70;;;;;;;5.93;39.25;99979.03;5016826;28;20051;-64
2022/04/17 08:18:17;;;;;;;4.68;2.38;;;;;;;5.54;39.86;99981.69;4982752;28;20147;-62
2022/04/17 08:20:43;;;;;;;4.93;1.75;;;;;;;5.40;40.18;99993.75;5016340;28;20427;-62
2022/04/17 08:23:08;;;;;;;4.80;2.10;;;;;;;5.37;40.59;99991.25;5016719;28;20044;-61
2022/04/17 08:25:35;;;;;;;5.53;2.42;;;;;;;5.42;40.62;99994.53;4998210;28;20044;-60
2022/04/17 08:28:00;;;;;;;7.47;2.30;;;;;;;5.57;40.91;99994.78;5016190;28;20041;-62
2022/04/17 08:30:27;;;;;;;3.03;2.17;;;;;;;5.73;41.00;99988.72;5014417;28;20102;-63
2022/04/17 08:32:53;;;;;;;4.03;1.73;;;;;;;5.89;40.33;99990.66;5015851;28;20040;-61
2022/04/17 08:35:19;;;;;;;4.80;1.67;;;;;;;5.98;40.23;99990.25;5016270;28;20573;-62
2022/04/17 08:37:44;;;;;;;4.22;1.80;;;;;;;6.07;39.93;99987.19;5015796;28;20052;-62
2022/04/17 08:40:09;;;;;;;4.43;2.10;;;;;;;6.16;39.71;99998.19;5015641;28;20044;-62
2022/04/17 08:42:36;;;;;;;5.45;1.83;;;;;;;6.20;39.24;99996.25;4998345;28;20033;-62
2022/04/17 08:45:01;;;;;;;2.05;1.60;;;;;;;6.27;39.63;99991.50;5015591;28;20256;-63
2022/04/17 08:47:29;;;;;;;4.05;1.77;;;;;;;6.36;39.25;99988.41;5015484;28;20476;-63
2022/04/17 08:49:55;;;;;;;4.65;1.85;;;;;;;6.39;39.31;99982.97;5015273;28;20415;-66
2022/04/17 08:52:20;;;;;;;3.17;1.38;;;;;;;6.48;38.83;99980.72;5015325;28;20049;-63
2022/04/17 08:54:46;;;;;;;1.67;1.38;;;;;;;6.68;38.87;99979.72;4997479;28;20534;-63
2022/04/17 08:57:11;;;;;;;2.45;1.60;;;;;;;6.79;38.43;99988.00;5000995;28;20118;-63
2022/04/17 08:59:36;;;;;;;5.45;2.22;;;;;;;6.90;38.34;99977.69;4998182;28;20501;-63
2022/04/17 09:02:07;;;;;;;2.17;1.58;;;;;;;6.98;37.19;99976.47;4981237;28;20074;-63
2022/04/17 09:04:32;;;;;;;1.88;1.73;;;;;;;6.87;38.13;99980.53;5010775;28;20114;-62
2022/04/17 09:06:57;;;;;;;4.10;1.90;;;;;;;6.88;37.66;99976.91;4994702;28;20045;-63
2022/04/17 09:09:22;;;;;;;5.93;1.92;;;;;;;6.95;38.03;99980.13;4995989;28;20095;-64
2022/04/17 09:11:55;;;;;;;4.53;2.10;;;;;;;7.05;37.60;99977.84;4978702;28;20136;-63
2022/04/17 09:14:19;;;;;;;2.33;1.35;;;;;;;7.04;37.68;99981.44;4995876;28;20047;-64
2022/04/17 09:16:50;;;;;;;6.55;2.13;;;;;;;6.96;37.29;99984.50;4994827;28;20377;-64
2022/04/17 09:19:16;;;;;;;2.80;1.77;;;;;;;6.70;37.56;99987.59;4996782;28;20033;-62
2022/04/17 09:21:41;;;;;;;3.35;2.05;;;;;;;6.68;38.56;100000.06;4998658;28;20045;-63
2022/04/17 09:24:13;;;;;;;7.22;1.70;;;;;;;6.74;38.62;100005.94;5000421;28;20037;-62
2022/04/17 09:26:53;;;;;;;3.38;2.00;;;;;;;6.79;38.46;99993.28;4998138;28;20099;-64
2022/04/17 09:29:25;;;;;;;3.08;1.50;;;;;;;6.72;37.50;100004.28;4980744;28;20434;-64
2022/04/17 09:32:06;;;;;;;3.17;1.90;;;;;;;6.55;38.13;100002.44;4996646;28;20049;-63
2022/04/17 09:34:54;;;;;;;4.68;1.75;;;;;;;6.40;38.13;100006.72;5000158;28;20047;-63
2022/04/17 09:37:29;;;;;;;2.97;1.40;;;;;;;6.16;38.56;100000.81;4997044;28;20511;-65
2022/04/17 09:40:06;;;;;;;3.67;1.55;;;;;;;6.04;39.02;100014.63;4996400;28;20115;-67
2022/04/17 09:42:31;;;;;;;4.38;1.60;;;;;;;6.00;39.00;100022.78;4997825;28;20045;-71
2022/04/17 09:44:57;;;;;;;5.78;2.10;;;;;;;6.04;39.27;100016.44;4998012;28;20037;-67
2022/04/17 09:47:27;;;;;;;6.07;2.50;;;;;;;6.06;39.00;100015.44;4996753;28;20049;-68
2022/04/17 09:49:59;;;;;;;4.75;1.33;;;;;;;6.05;38.99;100024.28;4997339;28;20049;-67
2022/04/17 09:52:33;;;;;;;3.45;2.10;;;;;;;5.98;38.71;100022.84;4997034;28;20043;-67
2022/04/17 09:55:03;;;;;;;4.55;1.60;;;;;;;5.89;38.81;100004.75;4997077;28;20107;-66
2022/04/17 09:57:33;;;;;;;4.93;2.00;;;;;;;5.87;39.21;100014.50;4995071;28;20220;-67
2022/04/17 10:00:16;;;;;;;5.22;2.00;;;;;;;5.99;39.58;100013.97;4997285;28;20116;-67
2022/04/17 10:02:43;;;;;;;1.52;1.42;;;;;;;5.95;38.92;100017.72;4998870;28;20047;-67
2022/04/17 10:05:11;;;;;;;4.40;2.08;;;;;;;5.89;38.64;100018.00;5001635;28;20040;-67
2022/04/17 10:07:39;;;;;;;3.03;1.65;;;;;;;5.86;38.87;100015.47;5018921;28;20041;-67
2022/04/17 10:10:05;;;;;;;5.45;2.28;;;;;;;5.82;39.20;100013.88;5001011;28;20452;-65
2022/04/17 10:12:34;;;;;;;2.58;1.85;;;;;;;5.84;39.77;100018.19;5018506;28;20052;-65
2022/04/17 10:15:04;;;;;;;5.40;2.22;;;;;;;5.92;39.17;100019.63;5019080;28;20094;-66
2022/04/17 10:17:30;;;;;;;7.35;2.33;;;;;;;5.98;39.62;100028.13;5020268;28;20486;-66
2022/04/17 10:19:58;;;;;;;4.60;1.70;;;;;;;6.13;39.27;100027.44;4984260;28;20040;-66
2022/04/17 10:22:27;;;;;;;4.85;2.30;;;;;;;6.26;39.34;100034.78;5018669;28;20041;-66
2022/04/17 10:24:52;;;;;;;4.10;1.75;;;;;;;6.31;38.72;100044.25;5018538;28;20647;-66
2022/04/17 10:27:21;;;;;;;2.88;1.77;;;;;;;6.31;38.22;100024.88;5018683;28;20403;-67
2022/04/17 10:30:03;;;;;;;3.45;1.73;;;;;;;6.28;39.48;100035.59;5019368;28;20047;-68
2022/04/17 10:32:46;;;;;;;4.88;2.08;;;;;;;6.24;39.24;100026.91;5018940;28;20068;-64
2022/04/17 10:35:20;;;;;;;4.78;1.65;;;;;;;6.34;38.94;100019.41;5000837;28;20064;-66
2022/04/17 10:38:22;;;;;;;4.47;2.08;;;;;;;6.52;39.37;100026.47;5018302;28;20098;-65
2022/04/17 10:41:18;;;;;;;7.18;2.63;;;;;;;6.67;38.50;100025.69;5001830;28;20535;-66
2022/04/17 10:43:42;;;;;;;;;;;;;;;6.97;39.48;100025.13;4997201;28;20541;-65
2022/04/17 10:46:07;;;;;;;;;;;;;;;7.14;39.24;100020.66;5019838;28;20406;-65
2022/04/17 10:48:41;;;;;;;2.40;1.77;;;;;;;7.19;38.15;100023.94;5004175;28;20772;-68
2022/04/17 10:51:19;;;;;;;2.30;1.55;;;;;;;7.28;38.58;100025.25;5003491;28;20049;-72
2022/04/17 10:53:51;;;;;;;3.60;1.52;;;;;;;7.17;37.45;100017.84;5002114;28;20519;-70
2022/04/17 10:56:19;;;;;;;2.85;2.05;;;;;;;7.00;37.15;100030.28;5012196;28;20044;-68
2022/04/17 10:58:56;;;;;;;3.45;2.72;;;;;;;6.73;37.27;100020.09;5012324;28;20105;-69
2022/04/17 11:01:43;;;;;;;2.50;1.50;;;;;;;6.48;37.88;100016.94;5012205;28;20496;-66
2022/04/17 11:04:39;;;;;;;2.67;2.00;;;;;;;6.27;37.61;100010.03;5028672;28;20053;-67
2022/04/17 11:07:04;;;;;;;3.78;1.92;;;;;;;6.12;38.01;100012.47;5000477;28;20368;-67
2022/04/17 11:09:29;;;;;;;2.75;1.40;;;;;;;6.08;37.88;100008.28;5027860;28;20037;-70
2022/04/17 11:12:04;;;;;;;4.38;1.88;;;;;;;6.10;37.50;100016.97;4998625;28;20048;-71
2022/04/17 11:14:29;;;;;;;2.35;1.70;;;;;;;6.05;37.66;100000.47;5005773;28;20044;-61
2022/04/17 11:16:56;;;;;;;4.97;1.63;;;;;;;6.07;37.81;100006.56;5017896;28;20041;-63
2022/04/17 11:19:25;;;;;;;7.13;3.08;;;;;;;6.19;37.95;100010.41;5016431;28;20456;-60
2022/04/17 11:21:53;;;;;;;2.83;1.58;;;;;;;6.30;37.50;100005.47;5016018;28;20037;-64
2022/04/17 11:24:19;;;;;;;3.33;1.67;;;;;;;6.46;37.37;100005.56;5017546;28;20127;-62
2022/04/17 11:26:53;;;;;;;2.42;1.67;;;;;;;6.55;37.05;100013.06;5001121;28;20128;-62
2022/04/17 11:29:37;;;;;;;3.67;1.40;;;;;;;6.54;37.49;100012.22;4999072;28;20045;-63
2022/04/17 11:32:25;;;;;;;6.32;1.50;;;;;;;6.55;37.25;100016.56;5016814;28;20059;-62
2022/04/17 11:34:53;;;;;;;3.95;1.80;;;;;;;6.57;37.28;100025.28;5009484;28;20527;-62
2022/04/17 11:37:25;;;;;;;2.35;1.48;;;;;;;6.56;37.54;100022.72;5015669;28;20052;-63
2022/04/17 11:39:51;;;;;;;3.72;1.70;;;;;;;6.61;37.97;100012.75;4986315;28;20048;-61
2022/04/17 11:42:17;;;;;;;3.15;1.77;;;;;;;6.75;37.68;100014.75;4993601;28;20045;-62
2022/04/17 11:44:44;;;;;;;8.50;1.77;;;;;;;6.89;37.03;100010.44;5016924;28;20505;-61
2022/04/17 11:47:22;;;;;;;6.03;1.83;;;;;;;7.07;37.37;100015.75;5023604;28;20041;-62
2022/04/17 11:49:50;;;;;;;3.25;1.33;;;;;;;7.17;36.39;100011.69;5020270;28;20454;-62
2022/04/17 11:52:21;;;;;;;1.75;1.13;;;;;;;7.10;36.84;100007.66;5002148;28;20086;-63
2022/04/17 11:54:47;;;;;;;2.28;1.77;;;;;;;7.02;36.70;100004.50;5025740;28;20131;-62
2022/04/17 11:57:14;;;;;;;3.38;1.30;;;;;;;7.04;36.19;99997.34;5017204;28;20132;-62
2022/04/17 11:59:48;;;;;;;3.63;1.67;;;;;;;7.15;36.22;99995.00;5001010;28;20391;-66